Time;durP1;ratioP1;P1;durP2;ratioP2;P2;SDS_P1;SDS_P2;PMS_P1;PMS_P2;Temp;Humidity;BMP_temperature;BMP_pressure;BME280_temperature;BME280_humidity;BME280_pressure;Samples;Min_cycle;Max_cycle;Signal;HPM_P1;HPM_P2
2022/03/27 00:00:39;;;;;;;10.85;4.75;;;;;;;5.70;100.00;103395.22;6157370;23;20469;-77
2022/03/27 00:03:08;;;;;;;10.63;3.95;;;;;;;5.70;100.00;103403.06;6178103;23;20016;-76
2022/03/27 00:05:36;;;;;;;10.07;4.57;;;;;;;5.70;100.00;103410.03;6213558;23;20028;-77
2022/03/27 00:08:05;;;;;;;7.97;4.28;;;;;;;5.69;100.00;103395.13;6196953;23;20076;-77
2022/03/27 00:11:23;;;;;;;8.30;3.50;;;;;;;5.67;100.00;103402.88;6192616;23;20031;-76
2022/03/27 00:13:24;;;;;;;7.93;3.67;;;;;;;5.67;100.00;103400.25;6216819;23;20020;-77
2022/03/27 00:15:53;;;;;;;10.50;4.43;;;;;;;5.68;100.00;103404.69;6179175;23;20020;-78
2022/03/27 00:18:21;;;;;;;5.65;3.67;;;;;;;5.68;100.00;103404.69;6215688;23;20013;-78
2022/03/27 00:20:52;;;;;;;9.13;4.13;;;;;;;5.68;100.00;103406.41;6202157;23;20028;-78
2022/03/27 00:23:21;;;;;;;7.10;3.50;;;;;;;5.65;100.00;103408.03;6201755;23;20354;-78
2022/03/27 00:25:50;;;;;;;6.90;3.97;;;;;;;5.60;100.00;103396.34;6190039;23;20020;-78
2022/03/27 00:28:19;;;;;;;9.40;3.75;;;;;;;5.57;100.00;103413.56;6191784;23;20439;-78
2022/03/27 00:30:48;;;;;;;7.75;3.95;;;;;;;5.53;100.00;103408.94;6182138;23;20353;-78
2022/03/27 00:33:18;;;;;;;7.82;4.15;;;;;;;5.47;100.00;103412.06;6180324;23;20107;-78
2022/03/27 00:35:47;;;;;;;5.80;3.58;;;;;;;5.42;100.00;103398.66;6206365;23;20020;-78
2022/03/27 00:38:18;;;;;;;9.20;3.80;;;;;;;5.38;100.00;103401.91;6201280;23;20016;-78
2022/03/27 00:40:49;;;;;;;7.97;4.15;;;;;;;5.34;100.00;103404.22;6186866;23;20016;-78
2022/03/27 00:43:18;;;;;;;9.10;4.72;;;;;;;5.27;100.00;103393.38;6180162;23;20021;-78
2022/03/27 00:45:47;;;;;;;10.13;4.20;;;;;;;5.27;100.00;103401.22;6184224;23;20027;-78
2022/03/27 00:48:18;;;;;;;10.38;4.07;;;;;;;5.25;100.00;103396.66;6203240;23;20230;-78
2022/03/27 00:50:48;;;;;;;6.38;4.65;;;;;;;5.20;100.00;103398.09;6215923;23;20019;-78
2022/03/27 00:53:18;;;;;;;11.63;3.47;;;;;;;5.18;100.00;103402.28;6138917;23;20236;-78
2022/03/27 00:55:48;;;;;;;9.07;4.47;;;;;;;5.12;100.00;103389.72;6180791;23;20055;-78
2022/03/27 00:58:17;;;;;;;10.40;4.53;;;;;;;5.08;100.00;103388.63;6182772;23;20127;-78
2022/03/27 01:00:56;;;;;;;6.43;4.60;;;;;;;5.04;100.00;103397.06;6183967;23;20027;-79
2022/03/27 01:03:26;;;;;;;10.63;5.20;;;;;;;5.00;100.00;103391.53;6194850;23;20020;-78
2022/03/27 01:05:58;;;;;;;8.60;4.53;;;;;;;4.96;100.00;103389.53;6212700;23;20450;-78
2022/03/27 01:11:21;;;;;;;6.40;4.60;;;;;;;4.84;100.00;103387.00;6214169;23;20237;-78
2022/03/27 01:13:53;;;;;;;6.10;5.00;;;;;;;4.78;100.00;103382.28;6248802;23;20024;-78
2022/03/27 01:16:42;;;;;;;6.50;4.22;;;;;;;4.73;100.00;103388.00;6223111;23;20354;-78
2022/03/27 01:19:13;;;;;;;6.03;3.90;;;;;;;4.68;100.00;103391.16;6246558;23;20134;-78
2022/03/27 01:21:42;;;;;;;;;;;;;;;4.64;100.00;103383.91;6170808;23;20016;-78
2022/03/27 01:24:13;;;;;;;7.85;4.50;;;;;;;4.62;100.00;103384.63;6234267;23;19919;-78
2022/03/27 01:26:41;;;;;;;5.97;4.82;;;;;;;4.59;100.00;103381.81;6197780;23;20476;-78
2022/03/27 01:29:10;;;;;;;6.82;4.25;;;;;;;4.56;100.00;103377.28;6247467;23;20028;-78
2022/03/27 01:31:38;;;;;;;10.75;5.35;;;;;;;4.55;100.00;103387.63;6223883;23;20450;-78
2022/03/27 01:34:07;;;;;;;8.20;4.57;;;;;;;4.53;100.00;103379.66;6208891;23;20558;-78
2022/03/27 01:36:36;;;;;;;5.55;4.18;;;;;;;4.50;100.00;103374.25;6251905;23;20016;-78
2022/03/27 01:39:11;;;;;;;9.60;4.75;;;;;;;4.47;100.00;103374.94;6203087;23;20206;-78
2022/03/27 01:41:41;;;;;;;8.65;4.90;;;;;;;4.47;100.00;103366.22;6223876;23;20450;-79
2022/03/27 01:44:14;;;;;;;7.80;4.95;;;;;;;4.46;100.00;103367.00;6220164;23;20461;-78
2022/03/27 01:46:43;;;;;;;9.40;4.80;;;;;;;4.45;100.00;103368.72;6250034;23;20020;-78
2022/03/27 01:49:15;;;;;;;6.97;4.93;;;;;;;4.44;100.00;103368.59;6243725;23;20289;-78
2022/03/27 01:51:43;;;;;;;7.45;3.83;;;;;;;4.42;100.00;103364.97;6245763;23;20016;-78
2022/03/27 01:54:13;;;;;;;4.80;4.20;;;;;;;4.41;100.00;103357.97;6204098;23;20020;-78
2022/03/27 01:56:42;;;;;;;5.75;4.05;;;;;;;4.40;100.00;103354.41;6222858;23;20020;-78
2022/03/27 01:59:10;;;;;;;8.73;4.50;;;;;;;4.39;100.00;103354.34;6160045;23;20206;-78
2022/03/27 02:01:39;;;;;;;6.40;4.63;;;;;;;4.38;100.00;103349.91;6223517;23;20346;-78
2022/03/27 02:04:09;;;;;;;7.95;5.10;;;;;;;4.37;100.00;103353.34;6195068;23;20017;-78
2022/03/27 02:06:42;;;;;;;5.10;4.03;;;;;;;4.33;100.00;103354.81;6223383;23;20323;-78
2022/03/27 02:09:12;;;;;;;4.03;3.63;;;;;;;4.30;100.00;103354.59;6192359;23;20016;-78
2022/03/27 02:11:42;;;;;;;4.25;3.85;;;;;;;4.26;100.00;103358.72;6237169;23;20020;-78
2022/03/27 02:14:11;;;;;;;8.40;4.60;;;;;;;4.26;100.00;103363.94;6210588;23;20682;-77
2022/03/27 02:16:40;;;;;;;7.13;3.70;;;;;;;4.27;100.00;103367.44;6212257;23;20024;-78
2022/03/27 02:19:10;;;;;;;5.28;4.78;;;;;;;4.26;100.00;103376.09;6246684;23;20020;-78
2022/03/27 02:21:41;;;;;;;6.68;4.20;;;;;;;4.25;100.00;103367.34;6213381;23;20020;-78
2022/03/27 02:24:15;;;;;;;5.30;3.75;;;;;;;4.27;100.00;103370.03;6219008;23;20230;-78
2022/03/27 02:26:45;;;;;;;5.75;4.00;;;;;;;4.28;100.00;103361.44;6185132;23;20012;-78
2022/03/27 02:29:17;;;;;;;4.78;2.92;;;;;;;4.27;100.00;103359.59;6186096;23;20138;-78
2022/03/27 02:31:46;;;;;;;3.78;2.85;;;;;;;4.27;100.00;103360.53;6186604;23;20020;-78
2022/03/27 02:34:15;;;;;;;5.90;3.30;;;;;;;4.28;100.00;103350.97;6248326;23;20072;-78
2022/03/27 02:36:43;;;;;;;3.40;2.58;;;;;;;4.26;100.00;103356.09;6221866;23;20027;-78
2022/03/27 02:39:12;;;;;;;3.63;3.33;;;;;;;4.26;100.00;103352.59;6195960;23;20530;-78
2022/03/27 02:41:45;;;;;;;5.40;3.58;;;;;;;4.25;100.00;103351.69;6232580;23;20023;-78
2022/03/27 02:44:14;;;;;;;4.22;3.30;;;;;;;4.27;100.00;103360.53;6247901;23;20020;-78
2022/03/27 02:46:43;;;;;;;5.75;3.72;;;;;;;4.28;100.00;103353.59;6222741;23;20028;-78
2022/03/27 02:49:11;;;;;;;8.98;3.60;;;;;;;4.29;100.00;103352.78;6170877;23;20151;-78
2022/03/27 02:51:41;;;;;;;4.80;3.58;;;;;;;4.31;100.00;103356.44;6198823;23;20020;-79
2022/03/27 02:54:09;;;;;;;6.38;3.22;;;;;;;4.32;100.00;103357.31;6217658;23;20541;-78
2022/03/27 02:56:39;;;;;;;10.50;4.60;;;;;;;4.32;100.00;103355.63;6194725;23;20024;-78
2022/03/27 02:59:07;;;;;;;5.82;3.40;;;;;;;4.34;100.00;103360.94;6195650;23;20050;-78
2022/03/27 03:01:36;;;;;;;7.10;3.75;;;;;;;4.30;100.00;103360.72;6199321;23;20016;-78
2022/03/27 03:04:05;;;;;;;12.45;3.92;;;;;;;4.29;100.00;103353.72;6246179;23;20027;-78
2022/03/27 03:06:35;;;;;;;10.15;4.80;;;;;;;4.29;100.00;103356.31;6164733;23;20020;-78
2022/03/27 03:09:04;;;;;;;11.18;4.07;;;;;;;4.29;100.00;103365.81;6218064;23;20039;-78
2022/03/27 03:11:33;;;;;;;11.65;3.78;;;;;;;4.27;100.00;103359.59;6164051;23;20016;-78
2022/03/27 03:14:01;;;;;;;15.32;4.20;;;;;;;4.23;100.00;103355.88;6178547;23;20020;-78
2022/03/27 03:16:50;;;;;;;6.38;3.40;;;;;;;4.21;100.00;103356.56;6225931;23;20020;-78
2022/03/27 03:19:19;;;;;;;15.73;4.07;;;;;;;4.21;100.00;103351.34;6212479;23;20636;-78
2022/03/27 03:21:47;;;;;;;10.30;3.55;;;;;;;4.16;100.00;103353.66;6211490;23;20027;-78
2022/03/27 03:24:16;;;;;;;10.68;3.67;;;;;;;4.13;100.00;103353.44;6221808;23;20225;-78
2022/03/27 03:26:45;;;;;;;8.63;3.50;;;;;;;4.08;100.00;103341.75;6197258;23;20031;-78
2022/03/27 03:29:13;;;;;;;6.90;3.25;;;;;;;4.05;100.00;103341.56;6133455;23;20008;-78
2022/03/27 03:31:42;;;;;;;6.97;3.72;;;;;;;4.05;100.00;103347.69;6190487;23;20024;-78
2022/03/27 03:34:10;;;;;;;9.18;3.08;;;;;;;4.03;100.00;103348.38;6220803;23;20501;-78
2022/03/27 03:36:39;;;;;;;9.68;3.53;;;;;;;4.02;100.00;103342.25;6173388;23;20027;-78
2022/03/27 03:39:07;;;;;;;6.10;2.95;;;;;;;4.01;100.00;103349.97;6194159;23;20546;-78
2022/03/27 03:41:37;;;;;;;7.63;3.85;;;;;;;4.02;100.00;103338.72;6198484;23;20020;-78
2022/03/27 03:44:26;;;;;;;10.07;4.18;;;;;;;3.99;100.00;103341.13;6157341;23;20016;-79
2022/03/27 03:46:55;;;;;;;6.70;3.28;;;;;;;3.98;100.00;103349.75;6247288;23;20016;-78
2022/03/27 03:49:24;;;;;;;9.25;3.50;;;;;;;3.98;100.00;103344.53;6214168;23;20442;-78
2022/03/27 03:51:53;;;;;;;11.95;3.30;;;;;;;3.97;100.00;103337.50;6185151;23;20024;-78
2022/03/27 03:54:22;;;;;;;5.25;2.80;;;;;;;3.95;100.00;103339.09;6222623;23;20020;-78
2022/03/27 03:56:51;;;;;;;9.45;2.90;;;;;;;3.95;100.00;103333.88;6213006;23;20346;-78
2022/03/27 03:59:20;;;;;;;6.57;3.05;;;;;;;3.93;100.00;103327.66;6196227;23;20027;-78
2022/03/27 04:01:58;;;;;;;8.35;3.20;;;;;;;3.89;100.00;103327.47;6217235;23;20023;-78
2022/03/27 04:04:28;;;;;;;9.45;4.00;;;;;;;3.85;100.00;103327.13;6198796;23;20020;-78
2022/03/27 04:06:56;;;;;;;10.57;3.33;;;;;;;3.82;100.00;103321.66;6245817;23;20020;-78
2022/03/27 04:09:26;;;;;;;9.05;4.20;;;;;;;3.79;100.00;103331.91;6219434;23;20020;-78
2022/03/27 04:11:55;;;;;;;13.27;3.95;;;;;;;3.77;100.00;103321.34;6218426;23;20020;-78
2022/03/27 04:14:23;;;;;;;9.90;3.40;;;;;;;3.78;100.00;103322.25;6194601;23;20020;-78
2022/03/27 04:16:52;;;;;;;8.27;3.70;;;;;;;3.79;100.00;103324.97;6235704;23;20032;-78
2022/03/27 04:19:20;;;;;;;13.40;5.68;;;;;;;3.79;100.00;103335.41;6187043;23;20341;-78
2022/03/27 04:21:49;;;;;;;17.05;4.03;;;;;;;3.80;100.00;103331.09;6220768;23;20027;-78
2022/03/27 04:24:17;;;;;;;13.20;3.65;;;;;;;3.82;100.00;103330.44;6221242;23;20139;-78
2022/03/27 04:26:45;;;;;;;14.02;4.40;;;;;;;3.85;100.00;103321.91;6211884;23;20114;-78
2022/03/27 04:29:14;;;;;;;14.55;4.55;;;;;;;3.84;100.00;103326.22;6221152;23;20024;-78
2022/03/27 04:31:43;;;;;;;16.80;4.95;;;;;;;3.81;100.00;103331.22;6172021;23;20020;-78
2022/03/27 04:34:12;;;;;;;16.35;5.40;;;;;;;3.79;100.00;103324.97;6220185;23;20016;-78
2022/03/27 04:36:43;;;;;;;12.73;3.72;;;;;;;3.78;100.00;103324.88;6223395;23;20020;-78
2022/03/27 04:39:12;;;;;;;8.65;3.22;;;;;;;3.77;100.00;103333.50;6196186;23;20158;-78
2022/03/27 04:41:40;;;;;;;14.45;4.03;;;;;;;3.76;100.00;103327.34;6249023;23;20019;-78
2022/03/27 04:44:09;;;;;;;16.88;4.10;;;;;;;3.76;100.00;103329.97;6245636;23;20028;-78
2022/03/27 04:46:37;;;;;;;11.88;4.28;;;;;;;3.73;100.00;103321.94;6246224;23;20016;-78
2022/03/27 04:49:05;;;;;;;12.80;3.90;;;;;;;3.70;100.00;103327.88;6207967;23;20055;-78
2022/03/27 04:51:34;;;;;;;8.93;3.30;;;;;;;3.67;100.00;103330.25;6222954;23;20020;-77
2022/03/27 04:54:02;;;;;;;10.65;3.83;;;;;;;3.66;100.00;103332.72;6193477;23;20031;-78
2022/03/27 04:56:33;;;;;;;8.85;3.63;;;;;;;3.64;100.00;103332.63;6248812;23;20028;-78
2022/03/27 04:59:02;;;;;;;11.70;4.05;;;;;;;3.63;100.00;103341.25;6193190;23;20257;-78
2022/03/27 05:01:30;;;;;;;10.25;4.28;;;;;;;3.65;100.00;103333.53;6219486;23;20454;-78
2022/03/27 05:03:59;;;;;;;19.00;4.40;;;;;;;3.65;100.00;103334.44;6196964;23;20221;-78
2022/03/27 05:06:29;;;;;;;17.02;4.90;;;;;;;3.64;100.00;103332.63;6199439;23;20020;-78
2022/03/27 05:08:58;;;;;;;18.10;4.82;;;;;;;3.65;100.00;103343.97;6219608;23;20043;-78
2022/03/27 05:11:31;;;;;;;15.52;4.93;;;;;;;3.66;100.00;103343.16;6182756;23;20020;-77
2022/03/27 05:13:59;;;;;;;17.00;4.97;;;;;;;3.65;100.00;103349.19;6219142;23;20301;-78
2022/03/27 05:16:28;;;;;;;16.05;5.85;;;;;;;3.66;100.00;103346.66;6249110;23;20024;-78
2022/03/27 05:18:56;;;;;;;17.73;4.65;;;;;;;3.69;100.00;103348.63;6206552;23;20016;-78
2022/03/27 05:21:25;;;;;;;17.05;4.65;;;;;;;3.72;100.00;103346.19;6164122;23;20023;-78
2022/03/27 05:23:54;;;;;;;16.08;6.10;;;;;;;3.73;100.00;103342.81;6195702;23;20117;-78
2022/03/27 05:26:22;;;;;;;21.60;5.95;;;;;;;3.74;100.00;103339.38;6172109;23;20327;-78
2022/03/27 05:28:51;;;;;;;20.70;5.82;;;;;;;3.75;100.00;103336.00;6159442;23;20031;-77
2022/03/27 05:31:21;;;;;;;25.20;6.18;;;;;;;3.77;100.00;103338.72;6221071;23;20230;-78
2022/03/27 05:33:49;;;;;;;20.30;5.90;;;;;;;3.79;100.00;103337.13;6209912;23;20442;-78
2022/03/27 05:36:18;;;;;;;28.83;9.25;;;;;;;3.82;100.00;103342.53;6242007;23;20095;-77
2022/03/27 05:38:46;;;;;;;20.48;6.55;;;;;;;3.84;100.00;103349.69;6220828;23;20020;-78
2022/03/27 05:41:15;;;;;;;24.67;6.10;;;;;;;3.88;100.00;103343.00;6195358;23;20050;-77
2022/03/27 05:43:43;;;;;;;24.00;6.75;;;;;;;3.90;100.00;103349.22;6222844;23;20020;-78
2022/03/27 05:46:11;;;;;;;32.80;7.93;;;;;;;3.94;100.00;103352.97;6221106;23;20194;-77
2022/03/27 05:48:40;;;;;;;18.33;6.45;;;;;;;3.95;100.00;103349.53;6224514;23;20043;-77
2022/03/27 05:51:09;;;;;;;21.73;6.10;;;;;;;3.94;100.00;103351.25;6155586;23;20035;-78
2022/03/27 05:53:37;;;;;;;22.33;6.85;;;;;;;3.99;100.00;103348.94;6251115;23;20385;-77
2022/03/27 05:56:07;;;;;;;24.77;6.53;;;;;;;4.00;100.00;103342.94;6219548;23;20024;-78
2022/03/27 05:58:37;;;;;;;28.70;6.57;;;;;;;4.03;100.00;103353.59;6224335;23;20023;-77
2022/03/27 06:01:06;;;;;;;21.05;5.60;;;;;;;4.08;100.00;103346.97;6219613;23;20134;-78
2022/03/27 06:03:35;;;;;;;21.90;5.88;;;;;;;4.16;100.00;103360.56;6164384;23;20027;-77
2022/03/27 06:06:04;;;;;;;26.05;6.15;;;;;;;4.22;100.00;103361.00;6232844;23;20141;-78
2022/03/27 06:08:33;;;;;;;25.98;5.85;;;;;;;4.26;100.00;103358.72;6188802;23;20028;-77
2022/03/27 06:11:01;;;;;;;21.10;5.80;;;;;;;4.30;100.00;103362.44;6129693;23;20171;-77
2022/03/27 06:13:30;;;;;;;23.60;5.82;;;;;;;4.34;100.00;103358.34;6246077;23;20020;-77
2022/03/27 06:15:58;;;;;;;21.88;5.38;;;;;;;4.38;100.00;103366.47;6193127;23;20016;-78
2022/03/27 06:18:26;;;;;;;24.20;6.05;;;;;;;4.41;100.00;103371.91;6223616;23;20012;-78
2022/03/27 06:20:55;;;;;;;20.38;7.20;;;;;;;4.44;100.00;103374.75;6236824;23;20016;-78
2022/03/27 06:23:24;;;;;;;28.85;6.68;;;;;;;4.51;100.00;103363.00;6198328;23;20024;-78
2022/03/27 06:25:52;;;;;;;35.67;7.43;;;;;;;4.56;100.00;103374.69;6172160;23;20023;-78
2022/03/27 06:28:20;;;;;;;33.90;7.43;;;;;;;4.64;100.00;103367.34;6197921;23;20492;-77
2022/03/27 06:30:49;;;;;;;26.35;7.55;;;;;;;4.76;100.00;103372.50;6246946;23;20012;-78
2022/03/27 06:33:20;;;;;;;38.60;8.07;;;;;;;4.87;100.00;103379.34;6173115;23;20020;-78
2022/03/27 06:35:48;;;;;;;48.28;9.18;;;;;;;4.97;100.00;103373.03;6215310;23;20024;-77
2022/03/27 06:38:17;;;;;;;39.35;7.18;;;;;;;5.07;100.00;103383.31;6206861;23;20226;-78
2022/03/27 06:40:46;;;;;;;40.42;8.70;;;;;;;5.18;100.00;103373.53;6248680;23;20346;-78
2022/03/27 06:43:15;;;;;;;32.85;8.30;;;;;;;5.25;100.00;103375.75;6161760;23;20237;-78
2022/03/27 06:45:43;;;;;;;35.88;7.80;;;;;;;5.34;100.00;103370.22;6197967;23;20020;-78
2022/03/27 06:48:14;;;;;;;38.88;8.07;;;;;;;5.43;100.00;103376.97;6217578;23;20031;-77
2022/03/27 06:50:44;;;;;;;31.23;8.38;;;;;;;5.52;100.00;103371.44;6197802;23;20016;-78
2022/03/27 06:53:18;;;;;;;45.07;8.80;;;;;;;5.62;100.00;103368.59;6207087;23;20050;-78
2022/03/27 06:55:47;;;;;;;49.25;8.73;;;;;;;5.71;100.00;103370.91;6161550;23;20472;-78
2022/03/27 06:58:18;;;;;;;34.78;8.48;;;;;;;5.75;100.00;103375.50;6161443;23;20195;-77
2022/03/27 07:03:34;;;;;;;49.42;10.00;;;;;;;5.93;100.00;103382.69;6246561;23;20350;-77
2022/03/27 07:06:05;;;;;;;;;;;;;;;6.03;100.00;103383.41;6210512;23;20020;-78
2022/03/27 07:08:34;;;;;;;47.50;8.02;;;;;;;6.12;100.00;103383.06;6180400;23;19924;-77
2022/03/27 07:11:03;;;;;;;45.45;8.23;;;;;;;6.23;100.00;103382.00;6213161;23;20552;-78
2022/03/27 07:13:32;;;;;;;37.85;8.00;;;;;;;6.33;100.00;103377.34;6193276;23;20341;-77
2022/03/27 07:16:00;;;;;;;34.55;6.93;;;;;;;6.42;100.00;103381.41;6184755;23;20240;-78
2022/03/27 07:18:29;;;;;;;41.03;8.73;;;;;;;6.58;100.00;103370.16;6190375;23;20016;-77
2022/03/27 07:20:59;;;;;;;44.90;7.88;;;;;;;6.73;100.00;103374.50;6188978;23;20327;-78
2022/03/27 07:23:28;;;;;;;31.02;5.95;;;;;;;6.86;100.00;103368.28;6145127;23;20025;-78
2022/03/27 07:25:57;;;;;;;43.80;8.23;;;;;;;6.98;100.00;103367.28;6164322;23;20023;-78
2022/03/27 07:28:28;;;;;;;39.28;8.55;;;;;;;7.15;100.00;103362.13;6218830;23;20023;-78
2022/03/27 07:30:58;;;;;;;43.50;8.20;;;;;;;7.26;100.00;103368.88;6214630;23;20339;-78
2022/03/27 07:33:27;;;;;;;44.75;8.70;;;;;;;7.35;100.00;103368.47;6214577;23;20022;-77
2022/03/27 07:35:57;;;;;;;37.97;8.45;;;;;;;7.43;100.00;103367.22;6188333;23;20044;-77
2022/03/27 07:38:25;;;;;;;38.50;7.72;;;;;;;7.56;100.00;103368.78;6178652;23;20021;-78
2022/03/27 07:41:00;;;;;;;45.50;7.50;;;;;;;7.63;100.00;103365.69;6187715;23;20142;-77
2022/03/27 07:43:30;;;;;;;44.08;8.88;;;;;;;7.69;100.00;103376.50;6217774;23;20450;-77
2022/03/27 07:45:59;;;;;;;49.92;8.45;;;;;;;7.78;100.00;103371.78;6211515;23;20024;-77
2022/03/27 07:48:28;;;;;;;37.30;7.32;;;;;;;7.85;100.00;103362.53;6215417;23;20406;-77
2022/03/27 07:50:56;;;;;;;39.75;8.18;;;;;;;7.88;100.00;103369.66;6213006;23;20027;-77
2022/03/27 07:53:25;;;;;;;36.00;6.95;;;;;;;7.91;100.00;103367.22;6218012;23;20695;-77
2022/03/27 07:55:53;;;;;;;32.03;7.70;;;;;;;7.96;100.00;103371.91;6202194;23;20031;-77
2022/03/27 07:58:22;;;;;;;38.22;8.50;;;;;;;8.02;100.00;103365.19;6181316;23;20032;-77
2022/03/27 08:00:50;;;;;;;34.50;6.90;;;;;;;8.05;100.00;103365.31;6213923;23;20019;-77
2022/03/27 08:03:19;;;;;;;31.58;7.68;;;;;;;8.03;100.00;103373.13;6154202;23;20115;-77
2022/03/27 08:05:48;;;;;;;51.80;8.52;;;;;;;8.03;100.00;103370.50;6185819;23;20020;-77
2022/03/27 08:08:17;;;;;;;42.33;8.55;;;;;;;8.31;100.00;103377.22;6217041;23;20375;-77
2022/03/27 08:10:45;;;;;;;36.05;8.18;;;;;;;8.52;100.00;103375.75;6181188;23;20020;-77
2022/03/27 08:13:14;;;;;;;39.50;7.50;;;;;;;8.61;100.00;103380.59;6193449;23;20564;-77
2022/03/27 08:15:42;;;;;;;46.35;8.40;;;;;;;8.62;100.00;103373.59;6195757;23;20450;-77
2022/03/27 08:18:13;;;;;;;40.22;7.78;;;;;;;8.69;100.00;103373.09;6189807;23;20153;-77
2022/03/27 08:20:41;;;;;;;33.05;6.78;;;;;;;8.76;100.00;103377.84;6188653;23;20472;-77
2022/03/27 08:23:12;;;;;;;;;;;;;;;8.84;100.00;103375.63;6194589;23;20023;-77
2022/03/27 08:28:31;;;;;;;37.28;6.97;;;;;;;9.53;100.00;103368.50;6220837;23;20020;-77
2022/03/27 08:31:01;;;;;;;39.10;7.95;;;;;;;9.85;100.00;103362.13;6242988;23;20232;-77
2022/03/27 08:33:30;;;;;;;40.17;8.13;;;;;;;10.12;100.00;103370.38;6213926;23;20327;-77
2022/03/27 08:35:59;;;;;;;31.50;6.25;;;;;;;10.23;100.00;103367.34;6188564;23;20138;-77
2022/03/27 08:38:28;;;;;;;37.03;8.43;;;;;;;10.21;100.00;103368.97;6218875;23;20027;-77
2022/03/27 08:41:00;;;;;;;38.90;7.78;;;;;;;10.10;100.00;103364.13;6144916;23;20142;-78
2022/03/27 08:43:32;;;;;;;35.15;6.97;;;;;;;9.98;100.00;103375.84;6245913;23;20020;-78
2022/03/27 08:46:01;;;;;;;33.88;6.53;;;;;;;9.97;100.00;103374.03;6211317;23;20028;-77
2022/03/27 08:48:31;;;;;;;36.47;7.53;;;;;;;10.07;100.00;103373.63;6210565;23;20016;-77
2022/03/27 08:51:27;;;;;;;30.85;6.32;;;;;;;10.26;100.00;103370.09;6232248;23;20401;-77
2022/03/27 08:54:03;;;;;;;40.22;8.38;;;;;;;10.25;100.00;103374.47;6196319;23;20047;-77
2022/03/27 08:56:34;;;;;;;33.88;6.85;;;;;;;10.21;100.00;103371.59;6189491;23;21020;-78
2022/03/27 08:59:08;;;;;;;36.58;8.23;;;;;;;10.10;100.00;103373.78;6247295;23;20016;-77
2022/03/27 09:01:38;;;;;;;31.85;7.22;;;;;;;9.92;100.00;103376.44;6190749;23;20210;-77
2022/03/27 09:04:07;;;;;;;37.63;7.78;;;;;;;9.77;100.00;103371.38;6195533;23;20484;-77
2022/03/27 09:06:35;;;;;;;26.27;6.65;;;;;;;9.73;100.00;103367.72;6188098;23;20238;-77
2022/03/27 09:09:06;;;;;;;42.85;7.70;;;;;;;9.73;100.00;103378.25;6196301;23;20357;-77
2022/03/27 09:11:35;;;;;;;37.00;7.15;;;;;;;9.64;100.00;103374.25;6149600;23;20262;-78
2022/03/27 09:14:07;;;;;;;43.63;7.65;;;;;;;9.66;100.00;103378.78;6196603;23;20462;-77
2022/03/27 09:17:07;;;;;;;33.78;6.75;;;;;;;9.79;100.00;103382.88;6243706;23;20596;-78
2022/03/27 09:19:36;;;;;;;33.75;7.72;;;;;;;9.84;100.00;103375.19;6194870;23;20023;-77
2022/03/27 09:22:17;;;;;;;35.85;7.03;;;;;;;9.87;100.00;103372.72;6211892;23;20123;-80
2022/03/27 09:24:59;;;;;;;35.08;6.43;;;;;;;9.98;100.00;103381.09;6220021;23;20012;-78
2022/03/27 09:27:33;;;;;;;42.10;7.88;;;;;;;10.02;100.00;103376.06;6202128;23;20012;-79
2022/03/27 09:30:08;;;;;;;42.38;7.57;;;;;;;10.01;100.00;103382.16;6156908;23;20050;-78
2022/03/27 09:32:45;;;;;;;28.77;7.07;;;;;;;9.99;100.00;103380.28;6221861;23;20047;-78
2022/03/27 09:35:17;;;;;;;31.00;6.15;;;;;;;10.04;100.00;103378.78;6218015;23;20491;-78
2022/03/27 09:37:47;;;;;;;35.58;6.38;;;;;;;10.03;100.00;103379.59;6245532;23;20020;-78
2022/03/27 09:40:17;;;;;;;30.17;7.20;;;;;;;9.92;100.00;103377.38;6219138;23;20142;-78
2022/03/27 09:42:47;;;;;;;27.65;6.75;;;;;;;9.96;100.00;103373.13;6170384;23;20019;-78
2022/03/27 09:45:23;;;;;;;35.30;6.83;;;;;;;10.00;100.00;103368.91;6215471;23;20016;-78
2022/03/27 09:47:53;;;;;;;30.17;7.22;;;;;;;9.96;100.00;103367.84;6205777;23;20464;-78
2022/03/27 09:50:40;;;;;;;28.73;7.13;;;;;;;9.97;100.00;103366.16;6202332;23;20020;-77
2022/03/27 09:53:32;;;;;;;36.28;7.72;;;;;;;9.98;100.00;103362.66;6154731;23;20051;-77
2022/03/27 09:56:00;;;;;;;28.80;7.47;;;;;;;9.99;100.00;103360.09;6170271;23;20020;-77
2022/03/27 09:58:43;;;;;;;34.75;6.97;;;;;;;10.00;100.00;103358.34;6200630;23;20024;-77
2022/03/27 10:01:12;;;;;;;43.00;8.27;;;;;;;10.06;100.00;103361.31;6201008;23;20122;-77
2022/03/27 10:03:59;;;;;;;31.60;7.55;;;;;;;10.12;100.00;103351.03;6208950;23;20031;-77
2022/03/27 10:06:40;;;;;;;39.58;7.20;;;;;;;10.15;100.00;103352.06;6205687;23;20016;-76
2022/03/27 10:09:11;;;;;;;30.50;6.05;;;;;;;10.20;100.00;103349.63;6193732;23;20383;-77
2022/03/27 10:11:42;;;;;;;;;;;;;;;10.27;100.00;103346.44;6209952;23;20036;-76
2022/03/27 10:14:10;;;;;;;33.42;7.00;;;;;;;10.36;100.00;103335.44;6196263;23;20045;-76
2022/03/27 10:16:47;;;;;;;30.95;6.78;;;;;;;10.42;100.00;103330.44;6175851;23;20024;-77
2022/03/27 10:19:29;;;;;;;26.25;6.47;;;;;;;10.48;100.00;103338.59;6205010;23;20020;-76
2022/03/27 10:22:00;;;;;;;37.80;7.43;;;;;;;10.52;100.00;103331.72;6196560;23;20454;-78
2022/03/27 10:24:31;;;;;;;29.60;6.72;;;;;;;10.60;100.00;103338.22;6206112;23;20021;-77
2022/03/27 10:27:02;;;;;;;31.98;6.47;;;;;;;10.71;100.00;103318.47;6158238;23;20035;-76
2022/03/27 10:29:31;;;;;;;27.50;6.43;;;;;;;10.79;100.00;103318.81;6209283;23;20031;-76
2022/03/27 10:32:00;;;;;;;30.52;6.60;;;;;;;10.78;100.00;103319.66;6220168;23;20021;-76
2022/03/27 10:34:33;;;;;;;26.83;6.68;;;;;;;10.76;100.00;103316.06;6204495;23;20017;-76
2022/03/27 10:37:29;;;;;;;35.25;7.95;;;;;;;10.82;100.00;103315.41;6194525;23;20242;-76
2022/03/27 10:40:12;;;;;;;31.20;6.40;;;;;;;10.95;100.00;103316.81;6203242;23;20024;-76
2022/03/27 10:42:48;;;;;;;35.03;7.00;;;;;;;11.00;100.00;103307.34;6208949;23;20482;-77
2022/03/27 10:45:21;;;;;;;29.63;6.63;;;;;;;11.09;100.00;103300.69;6199684;23;20114;-76
2022/03/27 10:48:11;;;;;;;35.17;7.22;;;;;;;11.17;100.00;103305.38;6205015;23;20020;-76
2022/03/27 10:50:50;;;;;;;32.42;6.43;;;;;;;11.10;100.00;103302.50;6175579;23;20458;-76
2022/03/27 10:53:22;;;;;;;33.60;6.82;;;;;;;11.04;100.00;103297.00;6206915;23;20563;-76
2022/03/27 10:55:53;;;;;;;32.97;6.65;;;;;;;10.99;100.00;103298.53;6177720;23;20024;-76
2022/03/27 10:58:28;;;;;;;22.80;6.05;;;;;;;11.07;100.00;103297.09;6190954;23;20027;-76
2022/03/27 11:00:58;;;;;;;30.73;6.85;;;;;;;11.10;100.00;103298.97;6171941;23;20028;-76
2022/03/27 11:03:47;;;;;;;27.33;5.38;;;;;;;11.16;100.00;103301.84;6207602;23;20571;-76
2022/03/27 11:06:29;;;;;;;34.55;6.00;;;;;;;11.15;100.00;103289.47;6203828;23;20627;-76
2022/03/27 11:09:09;;;;;;;24.95;6.00;;;;;;;11.19;100.00;103296.72;6176990;23;20068;-76
2022/03/27 11:11:37;;;;;;;31.25;6.35;;;;;;;11.26;100.00;103290.81;6160401;23;21054;-76
2022/03/27 11:14:08;;;;;;;33.20;6.30;;;;;;;11.29;100.00;103290.94;6187212;23;20248;-76
2022/03/27 11:17:07;;;;;;;28.13;5.82;;;;;;;11.28;100.00;103286.50;6165972;23;20021;-79
2022/03/27 11:19:44;;;;;;;29.98;6.50;;;;;;;11.32;100.00;103283.16;6139581;23;20020;-77
2022/03/27 11:22:52;;;;;;;29.30;6.35;;;;;;;11.36;100.00;103275.34;6140084;23;20561;-76
2022/03/27 11:25:39;;;;;;;32.42;6.85;;;;;;;11.41;100.00;103282.59;6140386;23;20219;-78
2022/03/27 11:28:11;;;;;;;33.90;6.93;;;;;;;11.45;100.00;103280.97;6140754;23;20474;-79
2022/03/27 11:30:51;;;;;;;27.40;6.38;;;;;;;11.48;100.00;103279.34;6128531;23;20021;-77
2022/03/27 11:33:30;;;;;;;28.15;6.32;;;;;;;11.57;100.00;103275.25;6113945;23;20027;-77
2022/03/27 11:36:04;;;;;;;22.58;6.07;;;;;;;11.69;100.00;103276.63;6139319;23;20130;-79
2022/03/27 11:38:34;;;;;;;30.00;7.00;;;;;;;11.76;100.00;103274.19;6137338;23;20032;-78
2022/03/27 11:41:25;;;;;;;26.90;5.90;;;;;;;11.78;97.24;103262.88;6132795;23;20606;-78
2022/03/27 11:43:55;;;;;;;32.35;5.95;;;;;;;11.76;100.00;103264.56;6126721;23;20336;-78
2022/03/27 11:46:26;;;;;;;32.10;6.50;;;;;;;11.83;100.00;103273.59;6130513;23;20409;-76